Shinshinmaru — JD3332 — position and weather

sailwx.info

Track history (hours):
 
Tides and Currents Weather Stations Pressure Air Temp Water Temp Dewpoint Dewpoint Depression Visibility Wind Speed Wind Dir Waves Ship Positions

Shinshinmaru

Last reported at 2018-Jan-12 14:59 UTC. Time now 2018-Jan-19 07:21 UTC.
Position N 35°33' E 140°00'.

Length 74 m; draft 5.1 m.

Type: Tanker. MMSI: 431003616.

Date/timePositionNaut miles runAvg speedWind from/ knotsBaromVisibWave heightAir tempDewpointWater temp
2018-Jan-12 14:59N 35°33' E 140°00'0 0.0
2018-Jan-12 14:30N 35°33' E 140°00'0 0.0
2018-Jan-12 14:00N 35°33' E 140°00'0 0.0
2018-Jan-12 13:30N 35°33' E 140°00'0 0.0
2018-Jan-12 13:00N 35°33' E 140°00'0 0.0
2018-Jan-12 12:31N 35°33' E 140°00'0 0.0
2018-Jan-12 12:00N 35°33' E 140°00'0 0.0
2018-Jan-12 11:30N 35°33' E 140°00'0 0.0
2018-Jan-12 11:00N 35°33' E 140°00'0 0.0
2018-Jan-12 10:30N 35°33' E 140°00'0 0.0
2018-Jan-12 10:00N 35°33' E 140°00'0 0.0
2018-Jan-12 09:30N 35°33' E 140°00'0 0.0
2018-Jan-12 09:00N 35°33' E 140°00'0 0.0
2018-Jan-12 08:30N 35°33' E 140°00'0 0.0
2018-Jan-12 08:00N 35°33' E 140°00'0 0.0
2018-Jan-12 07:31N 35°33' E 140°00'0 0.0
2018-Jan-12 07:00N 35°33' E 140°00'4 7.1
2018-Jan-12 06:30N 35°32' E 139°57'611.4
2018-Jan-12 06:00N 35°30' E 139°50'510.7
2018-Jan-12 05:30N 35°30' E 139°43'0 0.8
2018-Jan-12 05:00N 35°29' E 139°43'0 0.0
2018-Jan-12 04:31N 35°29' E 139°43'0 0.0
2018-Jan-12 04:01N 35°29' E 139°43'0 0.0
2018-Jan-12 03:30N 35°29' E 139°43'0 0.0
2018-Jan-12 03:00N 35°29' E 139°43'0 0.0
2018-Jan-12 02:30N 35°29' E 139°43'0 0.0
2018-Jan-12 02:00N 35°29' E 139°43'0 0.0
2018-Jan-12 01:31N 35°29' E 139°43'0 0.0
2018-Jan-12 01:00N 35°29' E 139°43'0 0.0
2018-Jan-12 00:30N 35°29' E 139°43'2 4.1
2018-Jan-12 00:00N 35°27' E 139°44'612.0
2018-Jan-11 23:30N 35°31' E 139°50'0 0.1
2018-Jan-11 23:00N 35°31' E 139°50'0 0.0
2018-Jan-11 22:30N 35°31' E 139°50'0 0.0
2018-Jan-11 22:00N 35°31' E 139°50'0 0.0
2018-Jan-11 21:30N 35°31' E 139°50'0 0.0
2018-Jan-11 21:00N 35°31' E 139°50'0 0.0
2018-Jan-11 20:30N 35°31' E 139°50'0 0.0
2018-Jan-11 20:00N 35°31' E 139°50'0 0.0
2018-Jan-11 19:30N 35°31' E 139°50'0 0.0
2018-Jan-11 19:00N 35°31' E 139°50'0 0.1
2018-Jan-11 18:30N 35°31' E 139°50'0 0.0
2018-Jan-11 18:00N 35°31' E 139°50'0 0.1
2018-Jan-11 17:30N 35°31' E 139°51'0 0.0
2018-Jan-11 17:00N 35°31' E 139°51'0 0.1
2018-Jan-11 16:30N 35°31' E 139°50'0 0.1
2018-Jan-11 16:00N 35°31' E 139°51'0 0.0
2018-Jan-11 15:31N 35°31' E 139°51'0 0.0
2018-Jan-11 15:00N 35°31' E 139°51'0 0.0
2018-Jan-11 14:30N 35°31' E 139°51'0 0.0
2018-Jan-11 14:00N 35°31' E 139°51'0 0.0
2018-Jan-11 13:30N 35°31' E 139°51'0 0.0
2018-Jan-11 13:00N 35°31' E 139°51'0 0.0
2018-Jan-11 12:30N 35°31' E 139°51'0 0.0
2018-Jan-11 12:00N 35°31' E 139°51'0 0.0
2018-Jan-11 11:30N 35°31' E 139°51'0 0.1
2018-Jan-11 11:00N 35°31' E 139°50'0 0.9
2018-Jan-11 10:30N 35°31' E 139°51'612.1
2018-Jan-11 10:00N 35°33' E 139°58'612.1
2018-Jan-11 09:30N 35°36' E 140°05'2 3.3
2018-Jan-11 09:00N 35°35' E 140°07'0 0.0
2018-Jan-11 08:31N 35°35' E 140°07'0 0.0
2018-Jan-11 08:00N 35°35' E 140°07'0 0.0
2018-Jan-11 07:30N 35°35' E 140°07'0 0.0
2018-Jan-11 07:00N 35°35' E 140°07'0 0.0
2018-Jan-11 06:30N 35°35' E 140°07'0 0.0
2018-Jan-11 06:00N 35°35' E 140°07'0 0.0
2018-Jan-11 05:30N 35°35' E 140°07'0 0.0
2018-Jan-11 05:00N 35°35' E 140°07'0 0.0
2018-Jan-11 04:30N 35°35' E 140°07'3 6.4
2018-Jan-11 04:00N 35°35' E 140°03'2 4.6
2018-Jan-11 03:30N 35°33' E 140°01'0 0.0
2018-Jan-11 03:00N 35°33' E 140°01'0 0.0
2018-Jan-11 02:30N 35°33' E 140°01'0 0.0
2018-Jan-11 02:00N 35°33' E 140°01'0 0.0
2018-Jan-11 01:30N 35°33' E 140°01'0 0.0
2018-Jan-11 01:00N 35°33' E 140°01'0 0.1
2018-Jan-11 00:30N 35°33' E 140°01'0 0.1
2018-Jan-11 00:00N 35°33' E 140°01'0 0.1
2018-Jan-10 23:30N 35°33' E 140°01'0 0.0
2018-Jan-10 23:00N 35°33' E 140°01'0 0.0
2018-Jan-10 22:28N 35°33' E 140°01'0 0.0
2018-Jan-10 22:00N 35°33' E 140°01'0 0.0
2018-Jan-10 21:30N 35°33' E 140°01'0 0.0
2018-Jan-10 21:00N 35°33' E 140°01'0 0.1
2018-Jan-10 20:30N 35°33' E 140°01'0 0.0
2018-Jan-10 20:00N 35°33' E 140°01'0 0.0
2018-Jan-10 19:30N 35°33' E 140°01'0 0.0
2018-Jan-10 19:00N 35°33' E 140°01'0 0.0
2018-Jan-10 18:30N 35°33' E 140°01'0 0.0
2018-Jan-10 18:00N 35°33' E 140°01'0 0.1
2018-Jan-10 17:30N 35°33' E 140°01'0 0.0
2018-Jan-10 17:00N 35°33' E 140°01'0 0.1
2018-Jan-10 16:30N 35°33' E 140°01'0 0.0
2018-Jan-10 16:00N 35°33' E 140°01'0 0.0
2018-Jan-10 15:30N 35°33' E 140°01'0 0.0
2018-Jan-10 15:00N 35°33' E 140°01'0 0.0
2018-Jan-10 14:30N 35°33' E 140°01'0 0.0
2018-Jan-10 14:00N 35°33' E 140°01'0 0.0
2018-Jan-10 13:28N 35°33' E 140°01'0 0.0
2018-Jan-10 12:59N 35°33' E 140°01'0 0.0
2018-Jan-10 12:30N 35°33' E 140°01'0 0.0
2018-Jan-10 12:00N 35°33' E 140°01'0 0.0
2018-Jan-10 11:30N 35°33' E 140°01'0 0.0
2018-Jan-10 11:00N 35°33' E 140°01'0 0.0
2018-Jan-10 10:30N 35°33' E 140°01'0 0.0
2018-Jan-10 10:00N 35°33' E 140°01'0 0.0
2018-Jan-10 09:30N 35°33' E 140°01'0 0.0
2018-Jan-10 09:00N 35°33' E 140°01'0 0.0
2018-Jan-10 08:30N 35°33' E 140°01'0 0.0
2018-Jan-10 08:01N 35°33' E 140°01'0 0.0
2018-Jan-10 07:30N 35°33' E 140°01'0 0.0
2018-Jan-10 07:00N 35°33' E 140°01'0 0.0
2018-Jan-10 06:30N 35°33' E 140°01'0 0.0
2018-Jan-10 06:00N 35°33' E 140°01'0 0.0
2018-Jan-10 05:30N 35°33' E 140°01'0 0.0
2018-Jan-10 05:00N 35°33' E 140°01'0 0.0
2018-Jan-10 04:30N 35°33' E 140°01'0 0.0
2018-Jan-10 04:00N 35°33' E 140°01'0 0.0
2018-Jan-10 03:30N 35°33' E 140°01'0 0.0
2018-Jan-10 03:00N 35°33' E 140°01'0 0.0
2018-Jan-10 02:30N 35°33' E 140°01'0 0.0
2018-Jan-10 02:00N 35°33' E 140°01'0 0.0
2018-Jan-10 01:31N 35°33' E 140°01'0 0.0
2018-Jan-10 01:00N 35°33' E 140°01'0 0.0
2018-Jan-10 00:30N 35°33' E 140°01'0 0.0
2018-Jan-10 00:00N 35°33' E 140°01'0 0.0
2018-Jan-09 23:30N 35°33' E 140°01'0 0.0
2018-Jan-09 23:00N 35°33' E 140°01'0 0.0
2018-Jan-09 22:30N 35°33' E 140°01'0 0.0
2018-Jan-09 22:00N 35°33' E 140°01'0 0.0
2018-Jan-09 21:30N 35°33' E 140°01'0 0.0
2018-Jan-09 21:00N 35°33' E 140°01'0 0.0
2018-Jan-09 20:30N 35°33' E 140°01'0 0.0
2018-Jan-09 20:00N 35°33' E 140°01'0 0.0
2018-Jan-09 19:30N 35°33' E 140°01'0 0.0
2018-Jan-09 19:00N 35°33' E 140°01'0 0.0
2018-Jan-09 18:30N 35°33' E 140°01'0 0.0
2018-Jan-09 18:00N 35°33' E 140°01'0 0.0
2018-Jan-09 17:30N 35°33' E 140°01'0 0.0
2018-Jan-09 17:00N 35°33' E 140°01'0 0.0
2018-Jan-09 16:30N 35°33' E 140°01'0 0.0
2018-Jan-09 16:00N 35°33' E 140°01'0 0.0
2018-Jan-09 15:30N 35°33' E 140°01'0 0.0
2018-Jan-09 15:00N 35°33' E 140°01'0 0.0
2018-Jan-09 14:30N 35°33' E 140°01'0 0.0
2018-Jan-09 14:00N 35°33' E 140°01'0 0.0
2018-Jan-09 13:30N 35°33' E 140°01'0 0.0
2018-Jan-09 13:00N 35°33' E 140°01'0 0.0
2018-Jan-09 12:30N 35°33' E 140°01'0 0.0
2018-Jan-09 12:00N 35°33' E 140°01'0 0.0
2018-Jan-09 11:30N 35°33' E 140°01'0 0.0
2018-Jan-09 11:00N 35°33' E 140°01'0 0.0
2018-Jan-09 10:30N 35°33' E 140°01'0 0.0
2018-Jan-09 10:00N 35°33' E 140°01'0 0.0
2018-Jan-09 09:31N 35°33' E 140°01'0 0.0
2018-Jan-09 09:00N 35°33' E 140°01'0 0.0
2018-Jan-09 08:30N 35°33' E 140°01'0 0.0
2018-Jan-09 08:00N 35°33' E 140°01'0 0.0
2018-Jan-09 07:30N 35°33' E 140°01'0 0.0
2018-Jan-09 07:00N 35°33' E 140°01'0 0.0
2018-Jan-09 06:30N 35°33' E 140°01'0 0.0
2018-Jan-09 06:00N 35°33' E 140°01'0 0.0
2018-Jan-09 05:31N 35°33' E 140°01'0 0.0
2018-Jan-09 05:00N 35°33' E 140°01'0 0.1
2018-Jan-09 04:30N 35°33' E 140°01'0 0.0
2018-Jan-09 04:01N 35°33' E 140°01'0 0.1
2018-Jan-09 03:30N 35°33' E 140°01'0 0.0
2018-Jan-09 03:00N 35°33' E 140°01'0 0.0
2018-Jan-09 02:30N 35°33' E 140°01'2 5.0
2018-Jan-09 02:00N 35°35' E 140°03'3 5.6
2018-Jan-09 01:30N 35°35' E 140°07'0 0.0
2018-Jan-09 01:00N 35°35' E 140°07'4 7.5
2018-Jan-09 00:30N 35°34' E 140°02'2 4.2
2018-Jan-09 00:00N 35°33' E 140°00'0 0.0
2018-Jan-08 23:31N 35°33' E 140°00'0 0.0
2018-Jan-08 23:00N 35°33' E 140°00'0 0.0
2018-Jan-08 22:30N 35°33' E 140°00'0 0.0
2018-Jan-08 22:00N 35°33' E 140°00'0 0.0
2018-Jan-08 21:30N 35°33' E 140°00'0 0.1
2018-Jan-08 21:00N 35°33' E 140°00'0 0.1
2018-Jan-08 20:30N 35°33' E 140°00'0 0.0
2018-Jan-08 20:00N 35°33' E 140°00'0 0.0
2018-Jan-08 19:30N 35°33' E 140°00'0 0.1
2018-Jan-08 19:01N 35°33' E 140°00'0 0.1
2018-Jan-08 18:30N 35°33' E 140°00'0 0.0
2018-Jan-08 18:01N 35°33' E 140°00'0 0.0
2018-Jan-08 17:30N 35°33' E 140°00'0 0.1
2018-Jan-08 17:00N 35°33' E 140°00'0 0.0
2018-Jan-08 16:30N 35°33' E 140°00'0 0.0
2018-Jan-08 16:01N 35°33' E 140°00'0 0.0
2018-Jan-08 15:30N 35°33' E 140°00'0 0.0
2018-Jan-08 15:00N 35°33' E 140°00'0 0.0
2018-Jan-08 14:30N 35°33' E 140°00'0 0.0
2018-Jan-08 14:00N 35°33' E 140°00'0 0.0
2018-Jan-08 13:30N 35°33' E 140°00'0 0.0
2018-Jan-08 13:00N 35°33' E 140°00'0 0.0
2018-Jan-08 12:30N 35°33' E 140°00'0 0.0
2018-Jan-08 12:00N 35°33' E 140°00'2 3.2
2018-Jan-08 11:30N 35°32' E 139°59'612.0
2018-Jan-08 11:00N 35°29' E 139°52'611.9
2018-Jan-08 10:30N 35°25' E 139°47'611.8
2018-Jan-08 10:01N 35°19' E 139°44'611.3
2018-Jan-08 09:30N 35°14' E 139°47'611.8
2018-Jan-08 09:00N 35°08' E 139°46'611.4
2018-Jan-08 08:30N 35°04' E 139°41'611.8
2018-Jan-08 08:00N 35°00' E 139°36'1013.1
2018-Jan-08 07:14N 34°55' E 139°25'414.7
2018-Jan-08 06:59N 34°52' E 139°22'714.1
2018-Jan-08 06:28N 34°48' E 139°15'913.8
2018-Jan-08 05:49N 34°42' E 139°06'413.4
2018-Jan-08 05:30N 34°40' E 139°03'612.4
2018-Jan-08 05:00N 34°36' E 138°57'611.6
2018-Jan-08 04:29N 34°35' E 138°49'611.4
2018-Jan-08 04:00N 34°34' E 138°43'611.3
2018-Jan-08 03:29N 34°34' E 138°36'611.2
2018-Jan-08 02:58N 34°33' E 138°29'1011.6
2018-Jan-08 02:05N 34°33' E 138°16'112.1
2018-Jan-08 01:59N 34°33' E 138°15'16310.2
2018-Jan-07 10:00N 33°51' E 135°04'612.3
2018-Jan-07 09:30N 33°55' E 134°59'612.1
2018-Jan-07 09:00N 33°60' E 134°54'612.1
2018-Jan-07 08:30N 34°04' E 134°49'612.4
2018-Jan-07 08:00N 34°09' E 134°44'612.6
2018-Jan-07 07:30N 34°14' E 134°39'611.7
2018-Jan-07 07:00N 34°17' E 134°34'611.9
2018-Jan-07 06:29N 34°20' E 134°27'811.9
2018-Jan-07 05:52N 34°22' E 134°18'2 0.1
2018-Jan-06 12:17N 34°22' E 134°21'312.2
2018-Jan-06 12:00N 34°20' E 134°25'612.0
2018-Jan-06 11:30N 34°18' E 134°32'712.1
2018-Jan-06 10:56N 34°14' E 134°39'512.0
2018-Jan-06 10:29N 34°10' E 134°43'511.3
2018-Jan-06 10:00N 34°06' E 134°47'611.3
2018-Jan-06 09:29N 34°01' E 134°52'511.4
2018-Jan-06 09:01N 33°57' E 134°56'611.3
2018-Jan-06 08:30N 33°53' E 135°00'510.9
2018-Jan-06 08:00N 33°49' E 135°05'15810.2
2018-Jan-05 16:28N 34°31' E 138°09'511.2
2018-Jan-05 16:00N 34°33' E 138°16'711.9
2018-Jan-05 15:23N 34°34' E 138°24'612.2
2018-Jan-05 14:53N 34°34' E 138°32'512.3
2018-Jan-05 14:28N 34°35' E 138°38'712.3
2018-Jan-05 13:53N 34°35' E 138°47'512.2
2018-Jan-05 13:27N 34°35' E 138°53'511.2
2018-Jan-05 12:58N 34°38' E 138°59'511.4
2018-Jan-05 12:30N 34°41' E 139°04'612.1
2018-Jan-05 11:58N 34°45' E 139°10'712.9
2018-Jan-05 11:25N 34°50' E 139°16'512.4
2018-Jan-05 10:59N 34°53' E 139°21'712.1
2018-Jan-05 10:25N 34°58' E 139°28'512.0
2018-Jan-05 10:00N 35°00' E 139°33'612.0
2018-Jan-05 09:31N 35°04' E 139°39'611.8
2018-Jan-05 09:00N 35°08' E 139°44'612.0
2018-Jan-05 08:30N 35°14' E 139°46'510.5
2018-Jan-05 08:00N 35°19' E 139°43'611.1
2018-Jan-05 07:30N 35°24' E 139°42'510.2
2018-Jan-05 07:00N 35°29' E 139°43'0 0.3
2018-Jan-05 06:30N 35°29' E 139°43'0 0.0
2018-Jan-05 06:00N 35°29' E 139°43'0 0.0
2018-Jan-05 05:31N 35°29' E 139°43'0 0.0
2018-Jan-05 05:01N 35°29' E 139°43'0 0.0
2018-Jan-05 04:30N 35°29' E 139°43'2 4.0
2018-Jan-05 04:00N 35°30' E 139°45'4 7.4
2018-Jan-05 03:30N 35°30' E 139°50'4 7.7
2018-Jan-05 02:59N 35°32' E 139°54'4 9.1
2018-Jan-05 02:30N 35°34' E 139°59'5 9.7
2018-Jan-05 02:00N 35°36' E 140°04'2 3.6
2018-Jan-05 01:30N 35°35' E 140°07'0 0.0
2018-Jan-05 01:00N 35°35' E 140°07'0 0.0
2018-Jan-05 00:30N 35°35' E 140°07'0 0.0
2018-Jan-05 00:00N 35°35' E 140°07'0 0.0
2018-Jan-04 23:30N 35°35' E 140°07'0 0.0
2018-Jan-04 23:00N 35°35' E 140°07'0 0.0
2018-Jan-04 22:30N 35°35' E 140°07'4 7.2
2018-Jan-04 22:00N 35°35' E 140°02'2 3.4
2018-Jan-04 21:30N 35°33' E 140°01'0 0.1
2018-Jan-04 21:00N 35°33' E 140°01'0 0.0
2018-Jan-04 20:30N 35°33' E 140°01'0 0.0
2018-Jan-04 20:00N 35°33' E 140°01'0 0.1
2018-Jan-04 19:30N 35°33' E 140°01'0 0.1
2018-Jan-04 19:00N 35°33' E 140°01'0 0.0
2018-Jan-04 18:30N 35°33' E 140°01'0 0.0
2018-Jan-04 18:00N 35°33' E 140°01'0 0.0
2018-Jan-04 17:30N 35°33' E 140°01'0 0.0
2018-Jan-04 17:00N 35°33' E 140°01'0 0.0
2018-Jan-04 16:30N 35°33' E 140°01'0 0.0
2018-Jan-04 16:00N 35°33' E 140°01'0 0.0
2018-Jan-04 15:30N 35°33' E 140°01'0 0.0
2018-Jan-04 15:00N 35°33' E 140°01'0 0.0
2018-Jan-04 14:30N 35°33' E 140°01'0 0.0
2018-Jan-04 14:00N 35°33' E 140°01'0 0.0
2018-Jan-04 13:30N 35°33' E 140°01'0 0.0
2018-Jan-04 13:00N 35°33' E 140°01'0 0.0
2018-Jan-04 12:30N 35°33' E 140°01'0 0.0
2018-Jan-04 12:00N 35°33' E 140°01'0 0.0
2018-Jan-04 11:30N 35°33' E 140°01'0 0.0
2018-Jan-04 11:00N 35°33' E 140°01'0 0.0
2018-Jan-04 10:30N 35°33' E 140°01'0 0.0
2018-Jan-04 10:00N 35°33' E 140°01'1 2.5
2018-Jan-04 09:30N 35°33' E 140°03'3 0.6
2018-Jan-04 05:21N 35°32' E 140°06'2 5.1
2018-Jan-04 05:01N 35°33' E 140°04'3 6.1
2018-Jan-04 04:30N 35°35' E 140°07'0 0.0
2018-Jan-04 04:00N 35°35' E 140°07'0 0.0
2018-Jan-04 03:30N 35°35' E 140°07'0 0.0
2018-Jan-04 03:00N 35°35' E 140°07'0 0.0
2018-Jan-04 02:30N 35°35' E 140°07'0 0.0
2018-Jan-04 02:00N 35°35' E 140°07'0 0.0
2018-Jan-04 01:30N 35°35' E 140°07'0 0.0
2018-Jan-04 01:00N 35°35' E 140°07'0 0.0
2018-Jan-04 00:30N 35°35' E 140°07'0 0.0
2018-Jan-04 00:00N 35°35' E 140°07'0 0.0
2018-Jan-03 23:30N 35°35' E 140°07'0 0.0
2018-Jan-03 23:00N 35°35' E 140°07'0 0.3
2018-Jan-03 22:30N 35°35' E 140°06'4 7.4
2018-Jan-03 22:00N 35°34' E 140°02'2 4.0
2018-Jan-03 21:30N 35°33' E 140°00'0 0.0
2018-Jan-03 21:00N 35°33' E 140°00'0 0.0
2018-Jan-03 20:30N 35°33' E 140°00'0 0.0
2018-Jan-03 20:00N 35°33' E 140°00'0 0.0
2018-Jan-03 19:30N 35°33' E 140°00'0 0.0
2018-Jan-03 19:00N 35°33' E 140°00'0 0.0
2018-Jan-03 18:30N 35°33' E 140°00'0 0.0
2018-Jan-03 18:00N 35°33' E 140°00'0 0.0
2018-Jan-03 17:30N 35°33' E 140°00'0 0.0
2018-Jan-03 17:00N 35°33' E 140°00'0 0.0
2018-Jan-03 16:30N 35°33' E 140°00'0 0.0
2018-Jan-03 16:00N 35°33' E 140°00'0 0.0
2018-Jan-03 15:30N 35°33' E 140°00'0 0.0
2018-Jan-03 15:00N 35°33' E 140°00'0 0.0
2018-Jan-03 14:30N 35°33' E 140°00'0 0.0
2018-Jan-03 14:00N 35°33' E 140°00'0 0.0
2018-Jan-03 13:30N 35°33' E 140°00'0 0.0
2018-Jan-03 13:00N 35°33' E 140°00'0 0.0
2018-Jan-03 12:30N 35°33' E 140°00'0 0.0
2018-Jan-03 12:00N 35°33' E 140°00'0 0.0
2018-Jan-03 11:30N 35°33' E 140°00'0 0.0
2018-Jan-03 11:00N 35°33' E 140°00'0 0.0
2018-Jan-03 10:30N 35°33' E 140°00'0 0.0
2018-Jan-03 10:00N 35°33' E 140°00'0 0.0
2018-Jan-03 09:30N 35°33' E 140°00'0 0.0
2018-Jan-03 09:00N 35°33' E 140°00'0 0.0
2018-Jan-03 08:30N 35°33' E 140°00'0 0.0
2018-Jan-03 08:00N 35°33' E 140°00'0 0.0
2018-Jan-03 07:30N 35°33' E 140°00'0 0.0
2018-Jan-03 07:00N 35°33' E 140°00'0 0.1
2018-Jan-03 06:30N 35°33' E 140°00'0 0.1
2018-Jan-03 06:00N 35°33' E 140°00'0 0.1
2018-Jan-03 05:30N 35°33' E 140°00'0 0.3
2018-Jan-03 05:01N 35°33' E 140°00'611.5
2018-Jan-03 04:29N 35°31' E 139°53'612.0
2018-Jan-03 04:00N 35°30' E 139°46'3 5.8
2018-Jan-03 03:30N 35°29' E 139°43'0 0.0
2018-Jan-03 03:01N 35°29' E 139°43'0 0.0
2018-Jan-03 02:31N 35°29' E 139°43'0 0.0
2018-Jan-03 02:01N 35°29' E 139°43'0 0.0
2018-Jan-03 01:30N 35°29' E 139°43'0 0.0
2018-Jan-03 01:00N 35°29' E 139°43'0 0.0
2018-Jan-03 00:30N 35°29' E 139°43'0 0.0
2018-Jan-03 00:00N 35°29' E 139°43'0 0.0
2018-Jan-02 23:30N 35°29' E 139°43'0 0.7
2018-Jan-02 23:00N 35°29' E 139°43'5 9.1
2018-Jan-02 22:31N 35°30' E 139°49'5 8.7
2018-Jan-02 21:58N 35°32' E 139°54'4 8.7
2018-Jan-02 21:30N 35°34' E 139°59'5 9.9
2018-Jan-02 21:00N 35°35' E 140°04'2 3.5
2018-Jan-02 20:30N 35°36' E 140°06'0 0.0
2018-Jan-02 20:00N 35°36' E 140°06'0 0.0
2018-Jan-02 19:30N 35°36' E 140°06'0 0.0
2018-Jan-02 19:00N 35°36' E 140°06'0 0.0
2018-Jan-02 18:30N 35°36' E 140°06'0 0.0
2018-Jan-02 18:00N 35°36' E 140°06'0 0.0
2018-Jan-02 17:30N 35°36' E 140°06'0 0.0
2018-Jan-02 17:00N 35°36' E 140°06'0 0.0
2018-Jan-02 16:30N 35°36' E 140°06'0 0.0
2018-Jan-02 16:00N 35°36' E 140°06'0 0.0
2018-Jan-02 15:30N 35°36' E 140°06'0 0.0
2018-Jan-02 15:00N 35°36' E 140°06'  
Track history (hours):
 
Tides and Currents Weather Stations Pressure Air Temp Water Temp Dewpoint Dewpoint Depression Visibility Wind Speed Wind Dir Waves Ship Positions

Shinshinmaru

Last reported at 2018-Jan-12 14:59 UTC. Time now 2018-Jan-19 07:21 UTC.
Position N 35°33' E 140°00'.

Length 74 m; draft 5.1 m.

Type: Tanker. MMSI: 431003616.

Date/timePositionNaut miles runAvg speedWind from/ knotsBaromVisibWave heightAir tempDewpointWater temp
2018-Jan-12 14:59N 35°33' E 140°00'0 0.0
2018-Jan-12 14:30N 35°33' E 140°00'0 0.0
2018-Jan-12 14:00N 35°33' E 140°00'0 0.0
2018-Jan-12 13:30N 35°33' E 140°00'0 0.0
2018-Jan-12 13:00N 35°33' E 140°00'0 0.0
2018-Jan-12 12:31N 35°33' E 140°00'0 0.0
2018-Jan-12 12:00N 35°33' E 140°00'0 0.0
2018-Jan-12 11:30N 35°33' E 140°00'0 0.0
2018-Jan-12 11:00N 35°33' E 140°00'0 0.0
2018-Jan-12 10:30N 35°33' E 140°00'0 0.0
2018-Jan-12 10:00N 35°33' E 140°00'0 0.0
2018-Jan-12 09:30N 35°33' E 140°00'0 0.0
2018-Jan-12 09:00N 35°33' E 140°00'0 0.0
2018-Jan-12 08:30N 35°33' E 140°00'0 0.0
2018-Jan-12 08:00N 35°33' E 140°00'0 0.0
2018-Jan-12 07:31N 35°33' E 140°00'0 0.0
2018-Jan-12 07:00N 35°33' E 140°00'4 7.1
2018-Jan-12 06:30N 35°32' E 139°57'611.4
2018-Jan-12 06:00N 35°30' E 139°50'510.7
2018-Jan-12 05:30N 35°30' E 139°43'0 0.8
2018-Jan-12 05:00N 35°29' E 139°43'0 0.0
2018-Jan-12 04:31N 35°29' E 139°43'0 0.0
2018-Jan-12 04:01N 35°29' E 139°43'0 0.0
2018-Jan-12 03:30N 35°29' E 139°43'0 0.0
2018-Jan-12 03:00N 35°29' E 139°43'0 0.0
2018-Jan-12 02:30N 35°29' E 139°43'0 0.0
2018-Jan-12 02:00N 35°29' E 139°43'0 0.0
2018-Jan-12 01:31N 35°29' E 139°43'0 0.0
2018-Jan-12 01:00N 35°29' E 139°43'0 0.0
2018-Jan-12 00:30N 35°29' E 139°43'2 4.1
2018-Jan-12 00:00N 35°27' E 139°44'612.0
2018-Jan-11 23:30N 35°31' E 139°50'0 0.1
2018-Jan-11 23:00N 35°31' E 139°50'0 0.0
2018-Jan-11 22:30N 35°31' E 139°50'0 0.0
2018-Jan-11 22:00N 35°31' E 139°50'0 0.0
2018-Jan-11 21:30N 35°31' E 139°50'0 0.0
2018-Jan-11 21:00N 35°31' E 139°50'0 0.0
2018-Jan-11 20:30N 35°31' E 139°50'0 0.0
2018-Jan-11 20:00N 35°31' E 139°50'0 0.0
2018-Jan-11 19:30N 35°31' E 139°50'0 0.0
2018-Jan-11 19:00N 35°31' E 139°50'0 0.1
2018-Jan-11 18:30N 35°31' E 139°50'0 0.0
2018-Jan-11 18:00N 35°31' E 139°50'0 0.1
2018-Jan-11 17:30N 35°31' E 139°51'0 0.0
2018-Jan-11 17:00N 35°31' E 139°51'0 0.1
2018-Jan-11 16:30N 35°31' E 139°50'0 0.1
2018-Jan-11 16:00N 35°31' E 139°51'0 0.0
2018-Jan-11 15:31N 35°31' E 139°51'0 0.0
2018-Jan-11 15:00N 35°31' E 139°51'0 0.0
2018-Jan-11 14:30N 35°31' E 139°51'0 0.0
2018-Jan-11 14:00N 35°31' E 139°51'0 0.0
2018-Jan-11 13:30N 35°31' E 139°51'0 0.0
2018-Jan-11 13:00N 35°31' E 139°51'0 0.0
2018-Jan-11 12:30N 35°31' E 139°51'0 0.0
2018-Jan-11 12:00N 35°31' E 139°51'0 0.0
2018-Jan-11 11:30N 35°31' E 139°51'0 0.1
2018-Jan-11 11:00N 35°31' E 139°50'0 0.9
2018-Jan-11 10:30N 35°31' E 139°51'612.1
2018-Jan-11 10:00N 35°33' E 139°58'612.1
2018-Jan-11 09:30N 35°36' E 140°05'2 3.3
2018-Jan-11 09:00N 35°35' E 140°07'0 0.0
2018-Jan-11 08:31N 35°35' E 140°07'0 0.0
2018-Jan-11 08:00N 35°35' E 140°07'0 0.0
2018-Jan-11 07:30N 35°35' E 140°07'0 0.0
2018-Jan-11 07:00N 35°35' E 140°07'0 0.0
2018-Jan-11 06:30N 35°35' E 140°07'0 0.0
2018-Jan-11 06:00N 35°35' E 140°07'0 0.0
2018-Jan-11 05:30N 35°35' E 140°07'0 0.0
2018-Jan-11 05:00N 35°35' E 140°07'0 0.0
2018-Jan-11 04:30N 35°35' E 140°07'3 6.4
2018-Jan-11 04:00N 35°35' E 140°03'2 4.6
2018-Jan-11 03:30N 35°33' E 140°01'0 0.0
2018-Jan-11 03:00N 35°33' E 140°01'0 0.0
2018-Jan-11 02:30N 35°33' E 140°01'0 0.0
2018-Jan-11 02:00N 35°33' E 140°01'0 0.0
2018-Jan-11 01:30N 35°33' E 140°01'0 0.0
2018-Jan-11 01:00N 35°33' E 140°01'0 0.1
2018-Jan-11 00:30N 35°33' E 140°01'0 0.1
2018-Jan-11 00:00N 35°33' E 140°01'0 0.1
2018-Jan-10 23:30N 35°33' E 140°01'0 0.0
2018-Jan-10 23:00N 35°33' E 140°01'0 0.0
2018-Jan-10 22:28N 35°33' E 140°01'0 0.0
2018-Jan-10 22:00N 35°33' E 140°01'0 0.0
2018-Jan-10 21:30N 35°33' E 140°01'0 0.0
2018-Jan-10 21:00N 35°33' E 140°01'0 0.1
2018-Jan-10 20:30N 35°33' E 140°01'0 0.0
2018-Jan-10 20:00N 35°33' E 140°01'0 0.0
2018-Jan-10 19:30N 35°33' E 140°01'0 0.0
2018-Jan-10 19:00N 35°33' E 140°01'0 0.0
2018-Jan-10 18:30N 35°33' E 140°01'0 0.0
2018-Jan-10 18:00N 35°33' E 140°01'0 0.1
2018-Jan-10 17:30N 35°33' E 140°01'0 0.0
2018-Jan-10 17:00N 35°33' E 140°01'0 0.1
2018-Jan-10 16:30N 35°33' E 140°01'0 0.0
2018-Jan-10 16:00N 35°33' E 140°01'0 0.0
2018-Jan-10 15:30N 35°33' E 140°01'0 0.0
2018-Jan-10 15:00N 35°33' E 140°01'0 0.0
2018-Jan-10 14:30N 35°33' E 140°01'0 0.0
2018-Jan-10 14:00N 35°33' E 140°01'0 0.0
2018-Jan-10 13:28N 35°33' E 140°01'0 0.0
2018-Jan-10 12:59N 35°33' E 140°01'0 0.0
2018-Jan-10 12:30N 35°33' E 140°01'0 0.0
2018-Jan-10 12:00N 35°33' E 140°01'0 0.0
2018-Jan-10 11:30N 35°33' E 140°01'0 0.0
2018-Jan-10 11:00N 35°33' E 140°01'0 0.0
2018-Jan-10 10:30N 35°33' E 140°01'0 0.0
2018-Jan-10 10:00N 35°33' E 140°01'0 0.0
2018-Jan-10 09:30N 35°33' E 140°01'0 0.0
2018-Jan-10 09:00N 35°33' E 140°01'0 0.0
2018-Jan-10 08:30N 35°33' E 140°01'0 0.0
2018-Jan-10 08:01N 35°33' E 140°01'0 0.0
2018-Jan-10 07:30N 35°33' E 140°01'0 0.0
2018-Jan-10 07:00N 35°33' E 140°01'0 0.0
2018-Jan-10 06:30N 35°33' E 140°01'0 0.0
2018-Jan-10 06:00N 35°33' E 140°01'0 0.0
2018-Jan-10 05:30N 35°33' E 140°01'0 0.0
2018-Jan-10 05:00N 35°33' E 140°01'0 0.0
2018-Jan-10 04:30N 35°33' E 140°01'0 0.0
2018-Jan-10 04:00N 35°33' E 140°01'0 0.0
2018-Jan-10 03:30N 35°33' E 140°01'0 0.0
2018-Jan-10 03:00N 35°33' E 140°01'0 0.0
2018-Jan-10 02:30N 35°33' E 140°01'0 0.0
2018-Jan-10 02:00N 35°33' E 140°01'0 0.0
2018-Jan-10 01:31N 35°33' E 140°01'0 0.0
2018-Jan-10 01:00N 35°33' E 140°01'0 0.0
2018-Jan-10 00:30N 35°33' E 140°01'0 0.0
2018-Jan-10 00:00N 35°33' E 140°01'0 0.0
2018-Jan-09 23:30N 35°33' E 140°01'0 0.0
2018-Jan-09 23:00N 35°33' E 140°01'0 0.0
2018-Jan-09 22:30N 35°33' E 140°01'0 0.0
2018-Jan-09 22:00N 35°33' E 140°01'0 0.0
2018-Jan-09 21:30N 35°33' E 140°01'0 0.0
2018-Jan-09 21:00N 35°33' E 140°01'0 0.0
2018-Jan-09 20:30N 35°33' E 140°01'0 0.0
2018-Jan-09 20:00N 35°33' E 140°01'0 0.0
2018-Jan-09 19:30N 35°33' E 140°01'0 0.0
2018-Jan-09 19:00N 35°33' E 140°01'0 0.0
2018-Jan-09 18:30N 35°33' E 140°01'0 0.0
2018-Jan-09 18:00N 35°33' E 140°01'0 0.0
2018-Jan-09 17:30N 35°33' E 140°01'0 0.0
2018-Jan-09 17:00N 35°33' E 140°01'0 0.0
2018-Jan-09 16:30N 35°33' E 140°01'0 0.0
2018-Jan-09 16:00N 35°33' E 140°01'0 0.0
2018-Jan-09 15:30N 35°33' E 140°01'0 0.0
2018-Jan-09 15:00N 35°33' E 140°01'0 0.0
2018-Jan-09 14:30N 35°33' E 140°01'0 0.0
2018-Jan-09 14:00N 35°33' E 140°01'0 0.0
2018-Jan-09 13:30N 35°33' E 140°01'0 0.0
2018-Jan-09 13:00N 35°33' E 140°01'0 0.0
2018-Jan-09 12:30N 35°33' E 140°01'0 0.0
2018-Jan-09 12:00N 35°33' E 140°01'0 0.0
2018-Jan-09 11:30N 35°33' E 140°01'0 0.0
2018-Jan-09 11:00N 35°33' E 140°01'0 0.0
2018-Jan-09 10:30N 35°33' E 140°01'0 0.0
2018-Jan-09 10:00N 35°33' E 140°01'0 0.0
2018-Jan-09 09:31N 35°33' E 140°01'0 0.0
2018-Jan-09 09:00N 35°33' E 140°01'0 0.0
2018-Jan-09 08:30N 35°33' E 140°01'0 0.0
2018-Jan-09 08:00N 35°33' E 140°01'0 0.0
2018-Jan-09 07:30N 35°33' E 140°01'0 0.0
2018-Jan-09 07:00N 35°33' E 140°01'0 0.0
2018-Jan-09 06:30N 35°33' E 140°01'0 0.0
2018-Jan-09 06:00N 35°33' E 140°01'0 0.0
2018-Jan-09 05:31N 35°33' E 140°01'0 0.0
2018-Jan-09 05:00N 35°33' E 140°01'0 0.1
2018-Jan-09 04:30N 35°33' E 140°01'0 0.0
2018-Jan-09 04:01N 35°33' E 140°01'0 0.1
2018-Jan-09 03:30N 35°33' E 140°01'0 0.0
2018-Jan-09 03:00N 35°33' E 140°01'0 0.0
2018-Jan-09 02:30N 35°33' E 140°01'2 5.0
2018-Jan-09 02:00N 35°35' E 140°03'3 5.6
2018-Jan-09 01:30N 35°35' E 140°07'0 0.0
2018-Jan-09 01:00N 35°35' E 140°07'4 7.5
2018-Jan-09 00:30N 35°34' E 140°02'2 4.2
2018-Jan-09 00:00N 35°33' E 140°00'0 0.0
2018-Jan-08 23:31N 35°33' E 140°00'0 0.0
2018-Jan-08 23:00N 35°33' E 140°00'0 0.0
2018-Jan-08 22:30N 35°33' E 140°00'0 0.0
2018-Jan-08 22:00N 35°33' E 140°00'0 0.0
2018-Jan-08 21:30N 35°33' E 140°00'0 0.1
2018-Jan-08 21:00N 35°33' E 140°00'0 0.1
2018-Jan-08 20:30N 35°33' E 140°00'0 0.0
2018-Jan-08 20:00N 35°33' E 140°00'0 0.0
2018-Jan-08 19:30N 35°33' E 140°00'0 0.1
2018-Jan-08 19:01N 35°33' E 140°00'0 0.1
2018-Jan-08 18:30N 35°33' E 140°00'0 0.0
2018-Jan-08 18:01N 35°33' E 140°00'0 0.0
2018-Jan-08 17:30N 35°33' E 140°00'0 0.1
2018-Jan-08 17:00N 35°33' E 140°00'0 0.0
2018-Jan-08 16:30N 35°33' E 140°00'0 0.0
2018-Jan-08 16:01N 35°33' E 140°00'0 0.0
2018-Jan-08 15:30N 35°33' E 140°00'0 0.0
2018-Jan-08 15:00N 35°33' E 140°00'0 0.0
2018-Jan-08 14:30N 35°33' E 140°00'0 0.0
2018-Jan-08 14:00N 35°33' E 140°00'0 0.0
2018-Jan-08 13:30N 35°33' E 140°00'0 0.0
2018-Jan-08 13:00N 35°33' E 140°00'0 0.0
2018-Jan-08 12:30N 35°33' E 140°00'0 0.0
2018-Jan-08 12:00N 35°33' E 140°00'2 3.2
2018-Jan-08 11:30N 35°32' E 139°59'612.0
2018-Jan-08 11:00N 35°29' E 139°52'611.9
2018-Jan-08 10:30N 35°25' E 139°47'611.8
2018-Jan-08 10:01N 35°19' E 139°44'611.3
2018-Jan-08 09:30N 35°14' E 139°47'611.8
2018-Jan-08 09:00N 35°08' E 139°46'611.4
2018-Jan-08 08:30N 35°04' E 139°41'611.8
2018-Jan-08 08:00N 35°00' E 139°36'1013.1
2018-Jan-08 07:14N 34°55' E 139°25'414.7
2018-Jan-08 06:59N 34°52' E 139°22'714.1
2018-Jan-08 06:28N 34°48' E 139°15'913.8
2018-Jan-08 05:49N 34°42' E 139°06'413.4
2018-Jan-08 05:30N 34°40' E 139°03'612.4
2018-Jan-08 05:00N 34°36' E 138°57'611.6
2018-Jan-08 04:29N 34°35' E 138°49'611.4
2018-Jan-08 04:00N 34°34' E 138°43'611.3
2018-Jan-08 03:29N 34°34' E 138°36'611.2
2018-Jan-08 02:58N 34°33' E 138°29'1011.6
2018-Jan-08 02:05N 34°33' E 138°16'112.1
2018-Jan-08 01:59N 34°33' E 138°15'16310.2
2018-Jan-07 10:00N 33°51' E 135°04'612.3
2018-Jan-07 09:30N 33°55' E 134°59'612.1
2018-Jan-07 09:00N 33°60' E 134°54'612.1
2018-Jan-07 08:30N 34°04' E 134°49'612.4
2018-Jan-07 08:00N 34°09' E 134°44'612.6
2018-Jan-07 07:30N 34°14' E 134°39'611.7
2018-Jan-07 07:00N 34°17' E 134°34'611.9
2018-Jan-07 06:29N 34°20' E 134°27'811.9
2018-Jan-07 05:52N 34°22' E 134°18'2 0.1
2018-Jan-06 12:17N 34°22' E 134°21'312.2
2018-Jan-06 12:00N 34°20' E 134°25'612.0
2018-Jan-06 11:30N 34°18' E 134°32'712.1
2018-Jan-06 10:56N 34°14' E 134°39'512.0
2018-Jan-06 10:29N 34°10' E 134°43'511.3
2018-Jan-06 10:00N 34°06' E 134°47'611.3
2018-Jan-06 09:29N 34°01' E 134°52'511.4
2018-Jan-06 09:01N 33°57' E 134°56'611.3
2018-Jan-06 08:30N 33°53' E 135°00'510.9
2018-Jan-06 08:00N 33°49' E 135°05'15810.2
2018-Jan-05 16:28N 34°31' E 138°09'511.2
2018-Jan-05 16:00N 34°33' E 138°16'711.9
2018-Jan-05 15:23N 34°34' E 138°24'612.2
2018-Jan-05 14:53N 34°34' E 138°32'512.3
2018-Jan-05 14:28N 34°35' E 138°38'712.3
2018-Jan-05 13:53N 34°35' E 138°47'512.2
2018-Jan-05 13:27N 34°35' E 138°53'511.2
2018-Jan-05 12:58N 34°38' E 138°59'511.4
2018-Jan-05 12:30N 34°41' E 139°04'612.1
2018-Jan-05 11:58N 34°45' E 139°10'712.9
2018-Jan-05 11:25N 34°50' E 139°16'512.4
2018-Jan-05 10:59N 34°53' E 139°21'712.1
2018-Jan-05 10:25N 34°58' E 139°28'512.0
2018-Jan-05 10:00N 35°00' E 139°33'612.0
2018-Jan-05 09:31N 35°04' E 139°39'611.8
2018-Jan-05 09:00N 35°08' E 139°44'612.0
2018-Jan-05 08:30N 35°14' E 139°46'510.5
2018-Jan-05 08:00N 35°19' E 139°43'611.1
2018-Jan-05 07:30N 35°24' E 139°42'510.2
2018-Jan-05 07:00N 35°29' E 139°43'0 0.3
2018-Jan-05 06:30N 35°29' E 139°43'0 0.0
2018-Jan-05 06:00N 35°29' E 139°43'0 0.0
2018-Jan-05 05:31N 35°29' E 139°43'0 0.0
2018-Jan-05 05:01N 35°29' E 139°43'0 0.0
2018-Jan-05 04:30N 35°29' E 139°43'2 4.0
2018-Jan-05 04:00N 35°30' E 139°45'4 7.4
2018-Jan-05 03:30N 35°30' E 139°50'4 7.7
2018-Jan-05 02:59N 35°32' E 139°54'4 9.1
2018-Jan-05 02:30N 35°34' E 139°59'5 9.7
2018-Jan-05 02:00N 35°36' E 140°04'2 3.6
2018-Jan-05 01:30N 35°35' E 140°07'0 0.0
2018-Jan-05 01:00N 35°35' E 140°07'0 0.0
2018-Jan-05 00:30N 35°35' E 140°07'0 0.0
2018-Jan-05 00:00N 35°35' E 140°07'0 0.0
2018-Jan-04 23:30N 35°35' E 140°07'0 0.0
2018-Jan-04 23:00N 35°35' E 140°07'0 0.0
2018-Jan-04 22:30N 35°35' E 140°07'4 7.2
2018-Jan-04 22:00N 35°35' E 140°02'2 3.4
2018-Jan-04 21:30N 35°33' E 140°01'0 0.1
2018-Jan-04 21:00N 35°33' E 140°01'0 0.0
2018-Jan-04 20:30N 35°33' E 140°01'0 0.0
2018-Jan-04 20:00N 35°33' E 140°01'0 0.1
2018-Jan-04 19:30N 35°33' E 140°01'0 0.1
2018-Jan-04 19:00N 35°33' E 140°01'0 0.0
2018-Jan-04 18:30N 35°33' E 140°01'0 0.0
2018-Jan-04 18:00N 35°33' E 140°01'0 0.0
2018-Jan-04 17:30N 35°33' E 140°01'0 0.0
2018-Jan-04 17:00N 35°33' E 140°01'0 0.0
2018-Jan-04 16:30N 35°33' E 140°01'0 0.0
2018-Jan-04 16:00N 35°33' E 140°01'0 0.0
2018-Jan-04 15:30N 35°33' E 140°01'0 0.0
2018-Jan-04 15:00N 35°33' E 140°01'0 0.0
2018-Jan-04 14:30N 35°33' E 140°01'0 0.0
2018-Jan-04 14:00N 35°33' E 140°01'0 0.0
2018-Jan-04 13:30N 35°33' E 140°01'0 0.0
2018-Jan-04 13:00N 35°33' E 140°01'0 0.0
2018-Jan-04 12:30N 35°33' E 140°01'0 0.0
2018-Jan-04 12:00N 35°33' E 140°01'0 0.0
2018-Jan-04 11:30N 35°33' E 140°01'0 0.0
2018-Jan-04 11:00N 35°33' E 140°01'0 0.0
2018-Jan-04 10:30N 35°33' E 140°01'0 0.0
2018-Jan-04 10:00N 35°33' E 140°01'1 2.5
2018-Jan-04 09:30N 35°33' E 140°03'3 0.6
2018-Jan-04 05:21N 35°32' E 140°06'2 5.1
2018-Jan-04 05:01N 35°33' E 140°04'3 6.1
2018-Jan-04 04:30N 35°35' E 140°07'0 0.0
2018-Jan-04 04:00N 35°35' E 140°07'0 0.0
2018-Jan-04 03:30N 35°35' E 140°07'0 0.0
2018-Jan-04 03:00N 35°35' E 140°07'0 0.0
2018-Jan-04 02:30N 35°35' E 140°07'0 0.0
2018-Jan-04 02:00N 35°35' E 140°07'0 0.0
2018-Jan-04 01:30N 35°35' E 140°07'0 0.0
2018-Jan-04 01:00N 35°35' E 140°07'0 0.0
2018-Jan-04 00:30N 35°35' E 140°07'0 0.0
2018-Jan-04 00:00N 35°35' E 140°07'0 0.0
2018-Jan-03 23:30N 35°35' E 140°07'0 0.0
2018-Jan-03 23:00N 35°35' E 140°07'0 0.3
2018-Jan-03 22:30N 35°35' E 140°06'4 7.4
2018-Jan-03 22:00N 35°34' E 140°02'2 4.0
2018-Jan-03 21:30N 35°33' E 140°00'0 0.0
2018-Jan-03 21:00N 35°33' E 140°00'0 0.0
2018-Jan-03 20:30N 35°33' E 140°00'0 0.0
2018-Jan-03 20:00N 35°33' E 140°00'0 0.0
2018-Jan-03 19:30N 35°33' E 140°00'0 0.0
2018-Jan-03 19:00N 35°33' E 140°00'0 0.0
2018-Jan-03 18:30N 35°33' E 140°00'0 0.0
2018-Jan-03 18:00N 35°33' E 140°00'0 0.0
2018-Jan-03 17:30N 35°33' E 140°00'0 0.0
2018-Jan-03 17:00N 35°33' E 140°00'0 0.0
2018-Jan-03 16:30N 35°33' E 140°00'0 0.0
2018-Jan-03 16:00N 35°33' E 140°00'0 0.0
2018-Jan-03 15:30N 35°33' E 140°00'0 0.0
2018-Jan-03 15:00N 35°33' E 140°00'0 0.0
2018-Jan-03 14:30N 35°33' E 140°00'0 0.0
2018-Jan-03 14:00N 35°33' E 140°00'0 0.0
2018-Jan-03 13:30N 35°33' E 140°00'0 0.0
2018-Jan-03 13:00N 35°33' E 140°00'0 0.0
2018-Jan-03 12:30N 35°33' E 140°00'0 0.0
2018-Jan-03 12:00N 35°33' E 140°00'0 0.0
2018-Jan-03 11:30N 35°33' E 140°00'0 0.0
2018-Jan-03 11:00N 35°33' E 140°00'0 0.0
2018-Jan-03 10:30N 35°33' E 140°00'0 0.0
2018-Jan-03 10:00N 35°33' E 140°00'0 0.0
2018-Jan-03 09:30N 35°33' E 140°00'0 0.0
2018-Jan-03 09:00N 35°33' E 140°00'0 0.0
2018-Jan-03 08:30N 35°33' E 140°00'0 0.0
2018-Jan-03 08:00N 35°33' E 140°00'0 0.0
2018-Jan-03 07:30N 35°33' E 140°00'0 0.0
2018-Jan-03 07:00N 35°33' E 140°00'0 0.1
2018-Jan-03 06:30N 35°33' E 140°00'0 0.1
2018-Jan-03 06:00N 35°33' E 140°00'0 0.1
2018-Jan-03 05:30N 35°33' E 140°00'0 0.3
2018-Jan-03 05:01N 35°33' E 140°00'611.5
2018-Jan-03 04:29N 35°31' E 139°53'612.0
2018-Jan-03 04:00N 35°30' E 139°46'3 5.8
2018-Jan-03 03:30N 35°29' E 139°43'0 0.0
2018-Jan-03 03:01N 35°29' E 139°43'0 0.0
2018-Jan-03 02:31N 35°29' E 139°43'0 0.0
2018-Jan-03 02:01N 35°29' E 139°43'0 0.0
2018-Jan-03 01:30N 35°29' E 139°43'0 0.0
2018-Jan-03 01:00N 35°29' E 139°43'0 0.0
2018-Jan-03 00:30N 35°29' E 139°43'0 0.0
2018-Jan-03 00:00N 35°29' E 139°43'0 0.0
2018-Jan-02 23:30N 35°29' E 139°43'0 0.7
2018-Jan-02 23:00N 35°29' E 139°43'5 9.1
2018-Jan-02 22:31N 35°30' E 139°49'5 8.7
2018-Jan-02 21:58N 35°32' E 139°54'4 8.7
2018-Jan-02 21:30N 35°34' E 139°59'5 9.9
2018-Jan-02 21:00N 35°35' E 140°04'2 3.5
2018-Jan-02 20:30N 35°36' E 140°06'0 0.0
2018-Jan-02 20:00N 35°36' E 140°06'0 0.0
2018-Jan-02 19:30N 35°36' E 140°06'0 0.0
2018-Jan-02 19:00N 35°36' E 140°06'0 0.0
2018-Jan-02 18:30N 35°36' E 140°06'0 0.0
2018-Jan-02 18:00N 35°36' E 140°06'0 0.0
2018-Jan-02 17:30N 35°36' E 140°06'0 0.0
2018-Jan-02 17:00N 35°36' E 140°06'0 0.0
2018-Jan-02 16:30N 35°36' E 140°06'0 0.0
2018-Jan-02 16:00N 35°36' E 140°06'0 0.0
2018-Jan-02 15:30N 35°36' E 140°06'0 0.0
2018-Jan-02 15:00N 35°36' E 140°06'  

Dump ship's entire track history